createdAt,value
2023-08-14T00:01:42.609Z,7.91
2023-08-14T00:04:12.780Z,7.90
2023-08-14T00:06:43.364Z,7.53
2023-08-14T00:09:13.394Z,7.47
2023-08-14T00:11:43.857Z,7.39
2023-08-14T00:14:14.298Z,7.36
2023-08-14T00:16:44.848Z,7.28
2023-08-14T00:19:15.136Z,7.19
2023-08-14T00:21:45.552Z,7.09
2023-08-14T00:24:15.631Z,7.20
2023-08-14T00:26:47.145Z,7.28
2023-08-14T00:29:17.783Z,7.33
2023-08-14T00:31:48.520Z,7.45
2023-08-14T00:34:18.628Z,7.44
2023-08-14T00:36:49.271Z,7.50
2023-08-14T00:39:19.380Z,7.57
2023-08-14T00:41:49.993Z,7.32
2023-08-14T00:44:20.101Z,7.19
2023-08-14T00:46:51.261Z,7.33
2023-08-14T00:49:21.373Z,7.23
2023-08-14T00:51:51.962Z,7.25
2023-08-14T00:54:22.212Z,7.23
2023-08-14T00:56:53.039Z,7.19
2023-08-14T00:59:23.312Z,7.14
2023-08-14T01:01:53.903Z,7.15
2023-08-14T01:04:24.517Z,7.08
2023-08-14T01:06:55.220Z,7.12
2023-08-14T01:09:25.457Z,7.16
2023-08-14T01:11:59.393Z,7.29
2023-08-14T01:14:34.040Z,7.26
2023-08-14T01:17:11.969Z,7.23
2023-08-14T01:19:44.237Z,7.22
2023-08-14T01:22:56.792Z,7.27
2023-08-14T01:25:35.732Z,7.18
2023-08-14T01:28:07.514Z,7.33
2023-08-14T01:30:38.580Z,7.16
2023-08-14T01:33:09.627Z,6.88
2023-08-14T01:35:48.510Z,6.71
2023-08-14T01:39:03.308Z,6.50
2023-08-14T01:41:43.934Z,6.59
2023-08-14T01:44:17.997Z,6.68
2023-08-14T01:46:50.277Z,6.66
2023-08-14T01:49:22.512Z,6.67
2023-08-14T01:51:55.074Z,6.75
2023-08-14T01:54:25.966Z,6.82
2023-08-14T01:56:59.058Z,6.81
2023-08-14T01:59:44.383Z,6.89
2023-08-14T02:02:16.598Z,6.94
2023-08-14T02:04:47.424Z,6.84
2023-08-14T02:07:17.500Z,6.70
2023-08-14T02:09:48.043Z,6.58
2023-08-14T02:12:18.278Z,6.46
2023-08-14T02:14:49.257Z,6.28
2023-08-14T02:17:21.229Z,6.21
2023-08-14T02:19:51.921Z,6.19
2023-08-14T02:22:22.709Z,6.17
2023-08-14T02:24:53.289Z,6.13
2023-08-14T02:27:23.363Z,6.08
2023-08-14T02:29:53.810Z,6.07
2023-08-14T02:32:24.047Z,6.07
2023-08-14T02:34:58.438Z,5.95
2023-08-14T02:37:28.445Z,5.95
2023-08-14T02:39:58.926Z,5.97
2023-08-14T02:42:29.401Z,6.03
2023-08-14T02:45:00.419Z,6.16
2023-08-14T02:47:30.465Z,6.10
2023-08-14T02:50:01.023Z,6.04
2023-08-14T02:52:31.024Z,6.05
2023-08-14T02:55:00.936Z,6.11
2023-08-14T02:57:31.444Z,6.16
2023-08-14T03:00:01.539Z,6.00
2023-08-14T03:02:32.048Z,6.06
2023-08-14T03:05:02.484Z,6.18
2023-08-14T03:07:32.958Z,6.30
2023-08-14T03:10:02.993Z,6.33
2023-08-14T03:12:33.463Z,6.31
2023-08-14T03:15:03.570Z,6.24
2023-08-14T03:17:34.410Z,6.30
2023-08-14T03:20:07.004Z,6.23
2023-08-14T03:22:37.559Z,6.20
2023-08-14T03:25:08.322Z,6.22
2023-08-14T03:27:40.058Z,6.23
2023-08-14T03:30:10.727Z,6.30
2023-08-14T03:32:42.835Z,6.36
2023-08-14T03:35:13.497Z,6.36
2023-08-14T03:37:44.035Z,6.41
2023-08-14T03:40:15.769Z,6.41
2023-08-14T03:42:46.443Z,6.38
2023-08-14T03:45:16.742Z,6.30
2023-08-14T03:47:47.335Z,6.21
2023-08-14T03:50:18.992Z,6.21
2023-08-14T03:52:51.108Z,5.80
2023-08-14T03:55:24.725Z,5.63
2023-08-14T03:57:56.971Z,5.61
2023-08-14T04:00:34.885Z,5.73
2023-08-14T04:03:09.682Z,5.83
2023-08-14T04:05:47.697Z,5.82
2023-08-14T04:08:42.423Z,5.85
2023-08-14T04:11:25.465Z,5.88
2023-08-14T04:14:47.337Z,5.90
2023-08-14T04:18:24.045Z,5.89
2023-08-14T04:22:54.426Z,6.02
2023-08-14T04:52:32.462Z,4.91
2023-08-14T04:55:17.019Z,4.93
2023-08-14T04:57:48.401Z,4.94
2023-08-14T05:00:19.280Z,4.95
2023-08-14T05:02:49.623Z,4.95
2023-08-14T05:05:22.040Z,5.00
2023-08-14T05:07:52.501Z,5.10
2023-08-14T05:10:24.180Z,5.17
2023-08-14T05:12:54.388Z,5.27
2023-08-14T05:15:24.917Z,5.32
2023-08-14T05:17:55.091Z,5.41
2023-08-14T05:20:25.644Z,5.44
2023-08-14T05:22:55.775Z,5.44
2023-08-14T05:25:27.097Z,5.39
2023-08-14T05:27:57.123Z,5.36
2023-08-14T05:30:27.604Z,5.29
2023-08-14T05:32:58.032Z,5.20
2023-08-14T05:35:28.755Z,5.12
2023-08-14T05:37:59.421Z,5.06
2023-08-14T05:40:30.300Z,5.05
2023-08-14T05:43:15.791Z,5.17
2023-08-14T05:45:48.137Z,5.16
2023-08-14T05:48:18.381Z,5.34
2023-08-14T05:50:48.737Z,5.43
2023-08-14T05:53:19.139Z,5.45
2023-08-14T05:55:49.572Z,5.39
2023-08-14T05:58:19.682Z,5.44
2023-08-14T06:00:51.781Z,5.52
2023-08-14T06:03:33.274Z,5.53
2023-08-14T06:06:12.712Z,5.48
2023-08-14T06:08:42.832Z,5.49
2023-08-14T06:11:13.285Z,5.53
2023-08-14T06:13:43.447Z,5.57
2023-08-14T06:16:14.616Z,5.54
2023-08-14T06:18:44.863Z,5.50
2023-08-14T06:21:15.306Z,5.55
2023-08-14T06:23:45.937Z,5.49
2023-08-14T06:26:16.595Z,5.52
2023-08-14T06:28:47.471Z,5.49
2023-08-14T06:31:18.018Z,5.43
2023-08-14T06:33:51.652Z,5.48
2023-08-14T06:36:23.086Z,5.51
2023-08-14T06:38:53.892Z,5.54
2023-08-14T06:41:24.576Z,5.58
2023-08-14T06:43:54.702Z,5.56
2023-08-14T06:46:24.725Z,5.60
2023-08-14T06:48:55.194Z,5.57
2023-08-14T06:51:25.238Z,5.52
2023-08-14T06:53:56.168Z,5.28
2023-08-14T06:56:26.495Z,5.31
2023-08-14T06:58:57.006Z,5.33
2023-08-14T07:01:27.388Z,5.32
2023-08-14T07:03:57.930Z,5.40
2023-08-14T07:06:28.116Z,5.42
2023-08-14T07:08:58.678Z,5.41
2023-08-14T07:11:28.930Z,5.47
2023-08-14T07:14:01.499Z,5.49
2023-08-14T07:16:31.752Z,5.58
2023-08-14T07:19:02.462Z,5.57
2023-08-14T07:21:32.506Z,5.60
2023-08-14T07:24:03.057Z,5.57
2023-08-14T07:26:33.344Z,5.50
2023-08-14T07:29:03.941Z,5.31
2023-08-14T07:31:33.999Z,5.13
2023-08-14T07:34:04.470Z,4.97
2023-08-14T07:36:36.737Z,4.83
2023-08-14T07:39:08.618Z,4.76
2023-08-14T07:41:38.929Z,4.68
2023-08-14T07:44:08.989Z,4.63
2023-08-14T07:46:39.386Z,4.65
2023-08-14T07:49:09.435Z,4.65
2023-08-14T07:51:39.938Z,4.70
2023-08-14T07:54:10.109Z,4.75
2023-08-14T07:56:40.828Z,4.88
2023-08-14T07:59:11.632Z,4.95
2023-08-14T08:01:43.688Z,4.88
2023-08-14T08:04:26.697Z,4.83
2023-08-14T08:06:57.820Z,4.87
2023-08-14T08:09:28.448Z,4.86
2023-08-14T08:12:00.844Z,4.87
2023-08-14T08:14:30.951Z,4.89
2023-08-14T08:17:00.799Z,4.94
2023-08-14T08:19:31.389Z,4.83
2023-08-14T08:22:01.459Z,4.82
2023-08-14T08:24:31.966Z,4.76
2023-08-14T08:27:02.196Z,4.66
2023-08-14T08:29:32.676Z,4.77
2023-08-14T08:32:02.773Z,4.77
2023-08-14T08:34:33.353Z,4.68
2023-08-14T08:37:03.346Z,4.57
2023-08-14T08:39:33.796Z,4.61
2023-08-14T08:42:05.564Z,4.62
2023-08-14T08:44:39.084Z,4.69
2023-08-14T08:47:14.040Z,4.70
2023-08-14T08:49:45.718Z,4.88
2023-08-14T08:52:17.710Z,4.95
2023-08-14T08:54:49.734Z,4.98
2023-08-14T08:57:21.084Z,5.11
2023-08-14T08:59:53.175Z,5.14
2023-08-14T09:02:23.525Z,5.14
2023-08-14T09:04:54.341Z,5.10
2023-08-14T09:07:24.562Z,5.08
2023-08-14T09:09:55.123Z,5.01
2023-08-14T09:12:24.964Z,4.90
2023-08-14T09:15:13.543Z,4.88
2023-08-14T09:17:43.592Z,4.95
2023-08-14T09:20:28.290Z,5.01
2023-08-14T09:23:01.361Z,4.93
2023-08-14T09:25:33.349Z,4.73
2023-08-14T09:28:04.278Z,4.56
2023-08-14T09:30:36.990Z,4.45
2023-08-14T09:33:11.664Z,4.40
2023-08-14T09:35:42.799Z,4.45
2023-08-14T09:38:17.586Z,4.43
2023-08-14T09:40:48.097Z,4.47
2023-08-14T09:43:18.213Z,4.54
2023-08-14T09:45:49.792Z,4.64
2023-08-14T09:48:20.440Z,4.68
2023-08-14T09:50:54.748Z,4.65
2023-08-14T09:53:25.168Z,4.69
2023-08-14T09:55:55.947Z,4.57
2023-08-14T09:58:26.542Z,4.54
2023-08-14T10:00:56.711Z,4.47
2023-08-14T10:03:28.644Z,4.47
2023-08-14T10:05:59.747Z,4.47
2023-08-14T10:08:32.235Z,4.51
2023-08-14T10:11:18.979Z,4.59
2023-08-14T10:13:56.724Z,4.63
2023-08-14T10:16:33.740Z,4.65
2023-08-14T10:19:06.917Z,4.93
2023-08-14T10:21:37.945Z,5.25
2023-08-14T10:24:09.862Z,5.43
2023-08-14T10:26:40.245Z,5.43
2023-08-14T10:29:11.087Z,5.41
2023-08-14T10:31:41.662Z,5.56
2023-08-14T10:34:12.730Z,5.90
2023-08-14T10:36:42.782Z,6.09
2023-08-14T10:41:48.197Z,6.61
2023-08-14T10:44:18.819Z,6.97
2023-08-14T10:46:49.633Z,7.21
2023-08-14T10:49:20.711Z,7.42
2023-08-14T10:51:50.797Z,7.64
2023-08-14T10:54:25.708Z,7.87
2023-08-14T10:57:02.049Z,8.16
2023-08-14T10:59:34.160Z,8.55
2023-08-14T11:02:18.128Z,8.44
2023-08-14T11:05:03.214Z,9.04
2023-08-14T11:07:36.633Z,9.68
2023-08-14T11:10:08.222Z,9.76
2023-08-14T11:12:38.916Z,10.24
2023-08-14T11:15:10.226Z,10.25
2023-08-14T11:17:40.701Z,10.70
2023-08-14T11:20:15.214Z,10.88
2023-08-14T11:22:49.969Z,11.01
2023-08-14T11:25:20.671Z,11.14
2023-08-14T11:27:53.383Z,11.59
2023-08-14T11:30:26.847Z,12.17
2023-08-14T11:32:57.381Z,12.80
2023-08-14T11:35:31.771Z,12.79
2023-08-14T11:38:02.237Z,13.04
2023-08-14T11:40:34.731Z,13.56
2023-08-14T11:43:05.046Z,14.20
2023-08-14T11:45:35.562Z,14.58
2023-08-14T11:48:10.142Z,14.83
2023-08-14T11:50:40.948Z,15.49
2023-08-14T11:53:14.300Z,15.74
2023-08-14T11:55:50.627Z,16.04
2023-08-14T12:02:59.195Z,16.31
2023-08-14T12:13:24.691Z,16.98
2023-08-14T12:28:49.476Z,18.28
2023-08-14T12:31:20.698Z,18.72
2023-08-14T12:33:56.436Z,18.83
2023-08-14T12:36:30.338Z,19.20
2023-08-14T12:39:00.611Z,19.33
2023-08-14T12:41:31.673Z,19.93
2023-08-14T12:44:01.840Z,19.82
2023-08-14T12:46:32.592Z,19.84
2023-08-14T12:49:02.732Z,20.29
2023-08-14T12:51:32.851Z,20.54
2023-08-14T12:54:03.398Z,19.90
2023-08-14T12:56:34.108Z,20.72
2023-08-14T12:59:04.740Z,21.38
2023-08-14T13:01:35.110Z,20.28
2023-08-14T13:04:07.739Z,20.09
2023-08-14T13:06:38.525Z,20.11
2023-08-14T13:09:09.323Z,20.36
2023-08-14T13:11:39.349Z,20.43
2023-08-14T13:14:09.873Z,21.10
2023-08-14T13:16:39.786Z,21.47
2023-08-14T13:19:10.284Z,21.24
2023-08-14T13:21:40.371Z,22.30
2023-08-14T13:24:11.041Z,22.98
2023-08-14T13:26:41.075Z,23.25
2023-08-14T13:29:11.709Z,23.76
2023-08-14T13:31:42.011Z,24.29
2023-08-14T13:34:13.186Z,24.47
2023-08-14T13:36:43.432Z,25.19
2023-08-14T13:39:14.101Z,25.35
2023-08-14T13:41:44.348Z,25.59
2023-08-14T13:44:14.852Z,25.73
2023-08-14T13:46:44.722Z,25.93
2023-08-14T13:49:15.139Z,26.02
2023-08-14T13:51:46.739Z,26.12
2023-08-14T13:54:17.274Z,26.20
2023-08-14T13:56:47.280Z,26.25
2023-08-14T13:59:17.790Z,26.32
2023-08-14T14:01:48.186Z,26.17
2023-08-14T14:04:18.925Z,26.25
2023-08-14T14:06:49.021Z,26.48
2023-08-14T14:09:19.031Z,26.74
2023-08-14T14:11:49.584Z,26.76
2023-08-14T14:14:19.648Z,27.10
2023-08-14T14:17:03.109Z,27.17
2023-08-14T14:19:33.781Z,26.05
2023-08-14T14:22:05.404Z,26.18
2023-08-14T14:24:37.281Z,26.87
2023-08-14T14:27:07.876Z,27.21
2023-08-14T14:29:37.953Z,27.38
2023-08-14T14:32:08.692Z,27.60
2023-08-14T14:34:38.809Z,27.96
2023-08-14T14:37:09.234Z,28.22
2023-08-14T14:39:39.288Z,28.17
2023-08-14T14:42:09.878Z,28.53
2023-08-14T14:44:40.025Z,28.47
2023-08-14T14:47:10.433Z,28.73
2023-08-14T14:49:40.664Z,29.25
2023-08-14T14:52:11.133Z,29.35
2023-08-14T14:54:44.577Z,28.83
2023-08-14T14:57:15.164Z,28.73
2023-08-14T14:59:45.265Z,29.00
2023-08-14T15:02:28.982Z,28.71
2023-08-14T15:05:05.833Z,28.55
2023-08-14T15:07:37.716Z,29.07
2023-08-14T15:10:08.525Z,29.66
2023-08-14T15:12:39.750Z,29.47
2023-08-14T15:15:10.481Z,29.85
2023-08-14T15:17:44.421Z,29.22
2023-08-14T15:20:15.415Z,29.92
2023-08-14T15:22:45.939Z,29.66
2023-08-14T15:25:16.508Z,29.96
2023-08-14T15:27:47.153Z,30.23
2023-08-14T15:30:21.662Z,30.44
2023-08-14T15:32:53.006Z,29.37
2023-08-14T15:35:23.385Z,28.58
2023-08-14T15:37:54.179Z,28.36
2023-08-14T15:40:24.306Z,28.59
2023-08-14T15:42:55.643Z,29.63
2023-08-14T15:45:26.026Z,29.76
2023-08-14T15:47:56.571Z,30.27
2023-08-14T15:50:27.213Z,29.97
2023-08-14T15:52:57.719Z,30.13
2023-08-14T15:55:28.045Z,29.11
2023-08-14T15:57:58.842Z,29.47
2023-08-14T16:00:32.559Z,29.21
2023-08-14T16:03:04.174Z,29.91
2023-08-14T16:05:35.425Z,29.74
2023-08-14T16:08:06.092Z,29.47
2023-08-14T16:10:36.555Z,28.47
2023-08-14T16:13:07.021Z,27.63
2023-08-14T16:15:37.081Z,26.85
2023-08-14T16:18:07.634Z,27.74
2023-08-14T16:20:37.985Z,28.94
2023-08-14T16:23:08.402Z,29.09
2023-08-14T16:25:38.586Z,29.56
2023-08-14T16:28:09.202Z,29.87
2023-08-14T16:30:39.836Z,30.54
2023-08-14T16:33:10.619Z,30.24
2023-08-14T16:35:40.963Z,30.29
2023-08-14T16:38:11.548Z,30.02
2023-08-14T16:40:46.411Z,30.75
2023-08-14T16:43:17.014Z,30.10
2023-08-14T16:45:52.008Z,29.87
2023-08-14T16:48:22.485Z,30.55
2023-08-14T16:50:53.152Z,31.02
2023-08-14T16:53:23.862Z,31.80
2023-08-14T16:55:56.730Z,31.92
2023-08-14T16:58:27.101Z,32.12
2023-08-14T17:00:57.135Z,32.45
2023-08-14T17:03:28.084Z,32.57
2023-08-14T17:06:02.662Z,31.97
2023-08-14T17:08:36.007Z,31.57
2023-08-14T17:11:08.395Z,31.85
2023-08-14T17:13:39.003Z,32.66
2023-08-14T17:16:12.557Z,32.86
2023-08-14T17:18:43.061Z,32.98
2023-08-14T17:21:13.103Z,32.13
2023-08-14T17:23:43.529Z,31.87
2023-08-14T17:26:13.554Z,31.41
2023-08-14T17:28:44.300Z,31.49
2023-08-14T17:31:14.430Z,31.16
2023-08-14T17:33:45.021Z,31.22
2023-08-14T17:36:15.288Z,31.37
2023-08-14T17:38:45.771Z,31.57
2023-08-14T17:41:16.089Z,31.49
2023-08-14T17:43:46.654Z,31.22
2023-08-14T17:46:16.940Z,30.79
2023-08-14T17:48:47.553Z,30.76
2023-08-14T17:51:17.944Z,31.44
2023-08-14T17:53:48.457Z,31.46
2023-08-14T17:56:19.742Z,31.48
2023-08-14T17:58:51.795Z,31.25
2023-08-14T18:01:22.153Z,31.36
2023-08-14T18:03:52.715Z,31.28
2023-08-14T18:06:22.828Z,31.66
2023-08-14T18:08:53.293Z,31.62
2023-08-14T18:11:23.475Z,31.83
2023-08-14T18:13:54.698Z,31.52
2023-08-14T18:16:24.900Z,32.22
2023-08-14T18:19:04.399Z,32.50
2023-08-14T18:21:42.952Z,32.12
2023-08-14T18:24:13.530Z,31.49
2023-08-14T18:26:43.855Z,31.55
2023-08-14T18:29:14.500Z,31.45
2023-08-14T18:31:44.595Z,30.01
2023-08-14T18:34:15.871Z,30.82
2023-08-14T18:36:45.907Z,30.81
2023-08-14T18:39:17.746Z,29.64
2023-08-14T18:41:47.862Z,29.55
2023-08-14T18:44:22.448Z,29.69
2023-08-14T18:46:52.501Z,27.99
2023-08-14T18:49:23.124Z,28.86
2023-08-14T18:51:53.124Z,28.54
2023-08-14T18:54:24.356Z,27.82
2023-08-14T18:56:54.419Z,26.92
2023-08-14T18:59:26.659Z,26.47
2023-08-14T19:01:56.809Z,27.66
2023-08-14T19:04:40.797Z,27.44
2023-08-14T19:07:12.592Z,27.42
2023-08-14T19:09:43.813Z,27.83
2023-08-14T19:12:14.460Z,27.52
2023-08-14T19:14:44.913Z,26.45
2023-08-14T19:17:14.981Z,27.50
2023-08-14T19:19:46.137Z,27.67
2023-08-14T19:22:19.224Z,26.53
2023-08-14T19:24:49.678Z,25.92
2023-08-14T19:27:20.130Z,26.06
2023-08-14T19:29:50.680Z,25.15
2023-08-14T19:32:20.718Z,25.31
2023-08-14T19:34:51.929Z,24.65
2023-08-14T19:37:22.077Z,24.48
2023-08-14T19:39:52.527Z,23.73
2023-08-14T19:42:22.672Z,23.67
2023-08-14T19:44:53.092Z,23.67
2023-08-14T19:47:23.311Z,23.21
2023-08-14T19:49:55.158Z,23.01
2023-08-14T19:52:25.489Z,23.02
2023-08-14T19:54:56.424Z,23.24
2023-08-14T19:57:26.618Z,23.32
2023-08-14T19:59:57.197Z,22.96
2023-08-14T20:02:29.700Z,22.33
2023-08-14T20:05:00.224Z,22.14
2023-08-14T20:07:30.411Z,21.94
2023-08-14T20:10:02.471Z,22.01
2023-08-14T20:12:32.478Z,21.67
2023-08-14T20:15:02.884Z,21.41
2023-08-14T20:17:33.124Z,21.57
2023-08-14T20:20:03.747Z,21.46
2023-08-14T20:22:33.883Z,21.16
2023-08-14T20:25:04.641Z,20.98
2023-08-14T20:27:34.836Z,20.98
2023-08-14T20:30:05.904Z,20.88
2023-08-14T20:32:36.331Z,20.91
2023-08-14T20:35:09.719Z,20.57
2023-08-14T20:37:42.724Z,20.44
2023-08-14T20:40:13.696Z,20.21
2023-08-14T20:42:44.228Z,19.98
2023-08-14T20:45:17.136Z,19.63
2023-08-14T20:47:47.927Z,19.32
2023-08-14T20:50:18.500Z,18.98
2023-08-14T20:52:48.655Z,18.70
2023-08-14T20:55:19.191Z,18.48
2023-08-14T20:57:49.676Z,18.24
2023-08-14T21:00:20.109Z,17.96
2023-08-14T21:02:50.210Z,17.77
2023-08-14T21:05:20.367Z,17.63
2023-08-14T21:07:50.849Z,17.49
2023-08-14T21:10:21.593Z,17.38
2023-08-14T21:12:51.999Z,17.10
2023-08-14T21:15:22.195Z,16.88
2023-08-14T21:17:52.664Z,16.82
2023-08-14T21:20:22.720Z,16.73
2023-08-14T21:22:53.348Z,16.61
2023-08-14T21:25:25.738Z,16.54
2023-08-14T21:27:56.146Z,16.41
2023-08-14T21:30:26.411Z,16.38
2023-08-14T21:32:57.023Z,16.31
2023-08-14T21:35:27.840Z,16.18
2023-08-14T21:37:58.987Z,16.06
2023-08-14T21:40:29.919Z,15.92
2023-08-14T21:43:00.356Z,15.85
2023-08-14T21:45:31.262Z,15.77
2023-08-14T21:48:02.094Z,15.71
2023-08-14T21:50:32.110Z,15.74
2023-08-14T21:53:02.602Z,15.73
2023-08-14T21:55:33.418Z,15.62
2023-08-14T21:58:04.040Z,15.56
2023-08-14T22:00:34.239Z,15.56
2023-08-14T22:03:04.854Z,15.52
2023-08-14T22:05:35.044Z,15.40
2023-08-14T22:08:06.615Z,15.29
2023-08-14T22:10:36.761Z,15.13
2023-08-14T22:13:07.192Z,15.00
2023-08-14T22:15:46.154Z,14.91
2023-08-14T22:18:17.714Z,14.82
2023-08-14T22:20:47.737Z,14.80
2023-08-14T22:23:18.145Z,14.76
2023-08-14T22:25:48.209Z,14.70
2023-08-14T22:28:18.661Z,14.62
2023-08-14T22:30:48.715Z,14.53
2023-08-14T22:33:19.135Z,14.43
2023-08-14T22:35:58.982Z,14.33
2023-08-14T22:38:31.970Z,14.37
2023-08-14T22:41:03.236Z,14.33
2023-08-14T22:43:33.992Z,14.27
2023-08-14T22:46:04.050Z,14.12
2023-08-14T22:48:34.590Z,13.87
2023-08-14T22:51:04.874Z,13.73
2023-08-14T22:53:35.315Z,13.73
2023-08-14T22:56:05.362Z,13.63
2023-08-14T22:58:35.798Z,13.61
2023-08-14T23:01:05.900Z,13.75
2023-08-14T23:03:36.458Z,13.78
2023-08-14T23:06:06.459Z,13.83
2023-08-14T23:08:36.392Z,13.81
2023-08-14T23:11:06.936Z,13.91
2023-08-14T23:13:37.054Z,13.78
2023-08-14T23:16:07.726Z,13.87
2023-08-14T23:18:37.928Z,13.85
2023-08-14T23:21:08.342Z,13.86
2023-08-14T23:23:38.552Z,13.80
2023-08-14T23:26:10.354Z,13.81
2023-08-14T23:28:40.589Z,13.56
2023-08-14T23:31:11.253Z,13.37
2023-08-14T23:33:42.320Z,13.35
2023-08-14T23:36:13.678Z,13.36
2023-08-14T23:38:46.030Z,13.28
2023-08-14T23:41:16.868Z,13.20
2023-08-14T23:43:46.934Z,13.22
2023-08-14T23:46:17.611Z,13.22
2023-08-14T23:48:47.731Z,13.12
2023-08-14T23:51:19.052Z,13.05
2023-08-14T23:53:49.397Z,13.03
2023-08-14T23:56:19.969Z,12.99
2023-08-14T23:58:49.998Z,12.97
